sensor_id;sensor_type;location;lat;lon;timestamp;P1;durP1;ratioP1;P2;durP2;ratioP2
13252;SDS011;6693;54.370;10.132;2023-03-12T00:00:50;4.90;;;1.33;;
13252;SDS011;6693;54.370;10.132;2023-03-12T00:01:56;6.00;;;1.20;;
13252;SDS011;6693;54.370;10.132;2023-03-12T00:02:58;6.20;;;1.15;;
13252;SDS011;6693;54.370;10.132;2023-03-12T00:04:02;5.55;;;1.00;;
13252;SDS011;6693;54.370;10.132;2023-03-12T00:05:03;6.55;;;1.27;;
13252;SDS011;6693;54.370;10.132;2023-03-12T00:06:07;6.70;;;1.30;;
13252;SDS011;6693;54.370;10.132;2023-03-12T00:07:07;5.28;;;1.25;;
13252;SDS011;6693;54.370;10.132;2023-03-12T00:08:11;7.57;;;0.98;;
13252;SDS011;6693;54.370;10.132;2023-03-12T00:09:12;7.75;;;1.63;;
13252;SDS011;6693;54.370;10.132;2023-03-12T00:10:15;19.13;;;13.48;;
13252;SDS011;6693;54.370;10.132;2023-03-12T00:11:17;16.92;;;11.43;;
13252;SDS011;6693;54.370;10.132;2023-03-12T00:12:21;11.48;;;5.43;;
13252;SDS011;6693;54.370;10.132;2023-03-12T00:13:21;10.10;;;4.90;;
13252;SDS011;6693;54.370;10.132;2023-03-12T00:14:25;9.93;;;4.35;;
13252;SDS011;6693;54.370;10.132;2023-03-12T00:15:26;9.93;;;4.07;;
13252;SDS011;6693;54.370;10.132;2023-03-12T00:16:29;7.43;;;2.83;;
13252;SDS011;6693;54.370;10.132;2023-03-12T00:17:35;10.80;;;3.95;;
13252;SDS011;6693;54.370;10.132;2023-03-12T00:18:36;6.95;;;1.15;;
13252;SDS011;6693;54.370;10.132;2023-03-12T00:19:39;5.18;;;1.58;;
13252;SDS011;6693;54.370;10.132;2023-03-12T00:20:51;5.03;;;1.35;;
13252;SDS011;6693;54.370;10.132;2023-03-12T00:21:52;6.95;;;1.23;;
13252;SDS011;6693;54.370;10.132;2023-03-12T00:22:55;6.80;;;1.10;;
13252;SDS011;6693;54.370;10.132;2023-03-12T00:23:56;7.35;;;1.17;;
13252;SDS011;6693;54.370;10.132;2023-03-12T00:24:59;4.72;;;1.13;;
13252;SDS011;6693;54.370;10.132;2023-03-12T00:26:00;8.65;;;1.42;;
13252;SDS011;6693;54.370;10.132;2023-03-12T00:27:03;5.22;;;1.08;;
13252;SDS011;6693;54.370;10.132;2023-03-12T00:28:05;4.07;;;0.90;;
13252;SDS011;6693;54.370;10.132;2023-03-12T00:29:08;6.53;;;1.17;;
13252;SDS011;6693;54.370;10.132;2023-03-12T00:30:10;7.82;;;1.35;;
13252;SDS011;6693;54.370;10.132;2023-03-12T00:31:14;6.43;;;1.15;;
13252;SDS011;6693;54.370;10.132;2023-03-12T00:32:16;5.63;;;1.05;;
13252;SDS011;6693;54.370;10.132;2023-03-12T00:33:22;6.47;;;1.20;;
13252;SDS011;6693;54.370;10.132;2023-03-12T00:34:22;5.90;;;1.38;;
13252;SDS011;6693;54.370;10.132;2023-03-12T00:35:25;6.40;;;1.02;;
13252;SDS011;6693;54.370;10.132;2023-03-12T00:36:27;8.10;;;1.33;;
13252;SDS011;6693;54.370;10.132;2023-03-12T00:37:31;4.88;;;0.82;;
13252;SDS011;6693;54.370;10.132;2023-03-12T00:38:32;5.80;;;1.15;;
13252;SDS011;6693;54.370;10.132;2023-03-12T00:39:35;7.72;;;1.33;;
13252;SDS011;6693;54.370;10.132;2023-03-12T00:40:36;5.28;;;0.93;;
13252;SDS011;6693;54.370;10.132;2023-03-12T00:41:39;4.90;;;1.02;;
13252;SDS011;6693;54.370;10.132;2023-03-12T00:42:40;4.65;;;0.93;;
13252;SDS011;6693;54.370;10.132;2023-03-12T00:43:43;5.70;;;1.20;;
13252;SDS011;6693;54.370;10.132;2023-03-12T00:44:43;4.50;;;0.98;;
13252;SDS011;6693;54.370;10.132;2023-03-12T00:45:47;7.15;;;1.17;;
13252;SDS011;6693;54.370;10.132;2023-03-12T00:46:47;5.93;;;1.10;;
13252;SDS011;6693;54.370;10.132;2023-03-12T00:47:50;6.97;;;1.05;;
13252;SDS011;6693;54.370;10.132;2023-03-12T00:48:54;4.68;;;1.55;;
13252;SDS011;6693;54.370;10.132;2023-03-12T00:49:57;6.35;;;1.95;;
13252;SDS011;6693;54.370;10.132;2023-03-12T00:50:57;8.65;;;1.30;;
13252;SDS011;6693;54.370;10.132;2023-03-12T00:52:01;5.78;;;1.23;;
13252;SDS011;6693;54.370;10.132;2023-03-12T00:53:02;6.53;;;1.45;;
13252;SDS011;6693;54.370;10.132;2023-03-12T00:54:05;6.40;;;1.23;;
13252;SDS011;6693;54.370;10.132;2023-03-12T00:55:06;5.32;;;1.13;;
13252;SDS011;6693;54.370;10.132;2023-03-12T00:56:10;6.68;;;1.27;;
13252;SDS011;6693;54.370;10.132;2023-03-12T00:57:10;5.05;;;1.17;;
13252;SDS011;6693;54.370;10.132;2023-03-12T00:58:13;7.22;;;1.50;;
13252;SDS011;6693;54.370;10.132;2023-03-12T00:59:14;6.78;;;1.23;;
13252;SDS011;6693;54.370;10.132;2023-03-12T01:00:17;7.30;;;1.45;;
13252;SDS011;6693;54.370;10.132;2023-03-12T01:01:18;7.82;;;1.38;;
13252;SDS011;6693;54.370;10.132;2023-03-12T01:02:22;8.80;;;1.38;;
13252;SDS011;6693;54.370;10.132;2023-03-12T01:03:22;5.70;;;1.17;;
13252;SDS011;6693;54.370;10.132;2023-03-12T01:04:28;7.68;;;1.13;;
13252;SDS011;6693;54.370;10.132;2023-03-12T01:05:29;5.00;;;1.23;;
13252;SDS011;6693;54.370;10.132;2023-03-12T01:06:36;6.70;;;1.58;;
13252;SDS011;6693;54.370;10.132;2023-03-12T01:07:37;6.05;;;1.17;;
13252;SDS011;6693;54.370;10.132;2023-03-12T01:08:40;5.38;;;1.20;;
13252;SDS011;6693;54.370;10.132;2023-03-12T01:09:41;6.30;;;1.25;;
13252;SDS011;6693;54.370;10.132;2023-03-12T01:10:44;7.28;;;1.02;;
13252;SDS011;6693;54.370;10.132;2023-03-12T01:11:44;7.05;;;1.45;;
13252;SDS011;6693;54.370;10.132;2023-03-12T01:12:48;7.20;;;1.33;;
13252;SDS011;6693;54.370;10.132;2023-03-12T01:13:48;4.57;;;0.93;;
13252;SDS011;6693;54.370;10.132;2023-03-12T01:14:51;7.72;;;1.15;;
13252;SDS011;6693;54.370;10.132;2023-03-12T01:15:52;6.13;;;1.10;;
13252;SDS011;6693;54.370;10.132;2023-03-12T01:16:55;6.57;;;0.93;;
13252;SDS011;6693;54.370;10.132;2023-03-12T01:17:56;7.22;;;1.63;;
13252;SDS011;6693;54.370;10.132;2023-03-12T01:18:59;6.18;;;1.13;;
13252;SDS011;6693;54.370;10.132;2023-03-12T01:21:07;5.55;;;1.08;;
13252;SDS011;6693;54.370;10.132;2023-03-12T01:22:08;4.95;;;1.42;;
13252;SDS011;6693;54.370;10.132;2023-03-12T01:23:11;6.13;;;1.00;;
13252;SDS011;6693;54.370;10.132;2023-03-12T01:24:12;7.35;;;1.67;;
13252;SDS011;6693;54.370;10.132;2023-03-12T01:25:15;8.73;;;1.33;;
13252;SDS011;6693;54.370;10.132;2023-03-12T01:26:16;6.82;;;1.17;;
13252;SDS011;6693;54.370;10.132;2023-03-12T01:27:19;6.95;;;1.77;;
13252;SDS011;6693;54.370;10.132;2023-03-12T01:28:20;6.82;;;1.25;;
13252;SDS011;6693;54.370;10.132;2023-03-12T01:29:23;6.38;;;1.10;;
13252;SDS011;6693;54.370;10.132;2023-03-12T01:30:24;6.80;;;1.10;;
13252;SDS011;6693;54.370;10.132;2023-03-12T01:31:27;5.60;;;1.10;;
13252;SDS011;6693;54.370;10.132;2023-03-12T01:32:28;6.28;;;1.00;;
13252;SDS011;6693;54.370;10.132;2023-03-12T01:33:31;5.80;;;1.25;;
13252;SDS011;6693;54.370;10.132;2023-03-12T01:34:31;4.78;;;0.80;;
13252;SDS011;6693;54.370;10.132;2023-03-12T01:35:38;6.38;;;1.13;;
13252;SDS011;6693;54.370;10.132;2023-03-12T01:36:39;5.13;;;1.25;;
13252;SDS011;6693;54.370;10.132;2023-03-12T01:37:44;4.07;;;1.02;;
13252;SDS011;6693;54.370;10.132;2023-03-12T01:38:44;5.35;;;1.17;;
13252;SDS011;6693;54.370;10.132;2023-03-12T01:39:48;6.32;;;1.30;;
13252;SDS011;6693;54.370;10.132;2023-03-12T01:40:49;6.70;;;1.13;;
13252;SDS011;6693;54.370;10.132;2023-03-12T01:41:52;4.97;;;1.05;;
13252;SDS011;6693;54.370;10.132;2023-03-12T01:42:53;8.57;;;1.10;;
13252;SDS011;6693;54.370;10.132;2023-03-12T01:43:57;5.13;;;1.33;;
13252;SDS011;6693;54.370;10.132;2023-03-12T01:44:59;4.82;;;1.08;;
13252;SDS011;6693;54.370;10.132;2023-03-12T01:46:15;5.32;;;1.38;;
13252;SDS011;6693;54.370;10.132;2023-03-12T01:47:23;7.32;;;1.30;;
13252;SDS011;6693;54.370;10.132;2023-03-12T01:48:27;5.28;;;1.13;;
13252;SDS011;6693;54.370;10.132;2023-03-12T01:49:30;5.50;;;0.90;;
13252;SDS011;6693;54.370;10.132;2023-03-12T01:50:37;7.20;;;1.02;;
13252;SDS011;6693;54.370;10.132;2023-03-12T01:51:39;5.85;;;1.20;;
13252;SDS011;6693;54.370;10.132;2023-03-12T01:52:44;6.50;;;1.02;;
13252;SDS011;6693;54.370;10.132;2023-03-12T01:53:45;4.32;;;1.05;;
13252;SDS011;6693;54.370;10.132;2023-03-12T01:54:52;4.78;;;1.00;;
13252;SDS011;6693;54.370;10.132;2023-03-12T01:55:57;6.63;;;1.42;;
13252;SDS011;6693;54.370;10.132;2023-03-12T01:56:58;8.20;;;1.52;;
13252;SDS011;6693;54.370;10.132;2023-03-12T01:58:02;6.30;;;1.25;;
13252;SDS011;6693;54.370;10.132;2023-03-12T01:59:06;7.50;;;1.00;;
13252;SDS011;6693;54.370;10.132;2023-03-12T02:00:12;10.23;;;1.30;;
13252;SDS011;6693;54.370;10.132;2023-03-12T02:01:15;6.00;;;1.00;;
13252;SDS011;6693;54.370;10.132;2023-03-12T02:02:19;3.67;;;1.02;;
13252;SDS011;6693;54.370;10.132;2023-03-12T02:03:26;6.65;;;1.23;;
13252;SDS011;6693;54.370;10.132;2023-03-12T02:04:29;7.90;;;1.30;;
13252;SDS011;6693;54.370;10.132;2023-03-12T02:05:31;6.72;;;1.35;;
13252;SDS011;6693;54.370;10.132;2023-03-12T02:06:41;6.68;;;0.93;;
13252;SDS011;6693;54.370;10.132;2023-03-12T02:07:45;4.05;;;0.90;;
13252;SDS011;6693;54.370;10.132;2023-03-12T02:08:48;3.95;;;0.93;;
13252;SDS011;6693;54.370;10.132;2023-03-12T02:09:50;5.88;;;1.02;;
13252;SDS011;6693;54.370;10.132;2023-03-12T02:10:53;7.35;;;1.17;;
13252;SDS011;6693;54.370;10.132;2023-03-12T02:11:53;6.80;;;1.17;;
13252;SDS011;6693;54.370;10.132;2023-03-12T02:12:57;5.65;;;1.05;;
13252;SDS011;6693;54.370;10.132;2023-03-12T02:13:57;6.80;;;0.80;;
13252;SDS011;6693;54.370;10.132;2023-03-12T02:15:01;5.97;;;1.00;;
13252;SDS011;6693;54.370;10.132;2023-03-12T02:16:02;7.30;;;0.85;;
13252;SDS011;6693;54.370;10.132;2023-03-12T02:17:06;8.25;;;1.10;;
13252;SDS011;6693;54.370;10.132;2023-03-12T02:18:08;4.97;;;0.88;;
13252;SDS011;6693;54.370;10.132;2023-03-12T02:19:15;6.40;;;1.23;;
13252;SDS011;6693;54.370;10.132;2023-03-12T02:20:22;6.45;;;1.35;;
13252;SDS011;6693;54.370;10.132;2023-03-12T02:21:28;4.32;;;1.10;;
13252;SDS011;6693;54.370;10.132;2023-03-12T02:22:35;7.65;;;0.90;;
13252;SDS011;6693;54.370;10.132;2023-03-12T02:24:43;6.60;;;1.13;;
13252;SDS011;6693;54.370;10.132;2023-03-12T02:25:51;6.35;;;1.13;;
13252;SDS011;6693;54.370;10.132;2023-03-12T02:26:52;7.38;;;1.25;;
13252;SDS011;6693;54.370;10.132;2023-03-12T02:27:56;7.13;;;1.00;;
13252;SDS011;6693;54.370;10.132;2023-03-12T02:28:57;6.82;;;0.80;;
13252;SDS011;6693;54.370;10.132;2023-03-12T02:30:01;6.13;;;0.98;;
13252;SDS011;6693;54.370;10.132;2023-03-12T02:31:06;7.13;;;1.17;;
13252;SDS011;6693;54.370;10.132;2023-03-12T02:32:07;4.75;;;0.73;;
13252;SDS011;6693;54.370;10.132;2023-03-12T02:33:11;5.82;;;1.13;;
13252;SDS011;6693;54.370;10.132;2023-03-12T02:34:12;5.93;;;1.15;;
13252;SDS011;6693;54.370;10.132;2023-03-12T02:35:15;5.43;;;0.80;;
13252;SDS011;6693;54.370;10.132;2023-03-12T02:36:16;4.22;;;0.77;;
13252;SDS011;6693;54.370;10.132;2023-03-12T02:37:19;6.00;;;1.35;;
13252;SDS011;6693;54.370;10.132;2023-03-12T02:39:42;4.65;;;0.70;;
13252;SDS011;6693;54.370;10.132;2023-03-12T02:40:45;6.93;;;0.93;;
13252;SDS011;6693;54.370;10.132;2023-03-12T02:41:53;7.63;;;0.68;;
13252;SDS011;6693;54.370;10.132;2023-03-12T02:42:57;5.13;;;1.10;;
13252;SDS011;6693;54.370;10.132;2023-03-12T02:43:59;6.30;;;0.70;;
13252;SDS011;6693;54.370;10.132;2023-03-12T02:45:05;4.10;;;0.63;;
13252;SDS011;6693;54.370;10.132;2023-03-12T02:46:07;6.10;;;0.77;;
13252;SDS011;6693;54.370;10.132;2023-03-12T02:47:10;6.80;;;0.90;;
13252;SDS011;6693;54.370;10.132;2023-03-12T02:48:11;8.02;;;0.98;;
13252;SDS011;6693;54.370;10.132;2023-03-12T02:49:14;5.32;;;0.88;;
13252;SDS011;6693;54.370;10.132;2023-03-12T02:50:16;6.97;;;0.77;;
13252;SDS011;6693;54.370;10.132;2023-03-12T02:51:19;6.53;;;0.88;;
13252;SDS011;6693;54.370;10.132;2023-03-12T02:52:20;4.50;;;0.80;;
13252;SDS011;6693;54.370;10.132;2023-03-12T02:53:23;6.40;;;1.10;;
13252;SDS011;6693;54.370;10.132;2023-03-12T02:54:24;4.70;;;0.70;;
13252;SDS011;6693;54.370;10.132;2023-03-12T02:55:28;5.35;;;0.93;;
13252;SDS011;6693;54.370;10.132;2023-03-12T02:56:28;5.38;;;0.80;;
13252;SDS011;6693;54.370;10.132;2023-03-12T02:57:34;6.50;;;1.00;;
13252;SDS011;6693;54.370;10.132;2023-03-12T02:58:36;5.68;;;1.45;;
13252;SDS011;6693;54.370;10.132;2023-03-12T02:59:42;5.20;;;0.85;;
13252;SDS011;6693;54.370;10.132;2023-03-12T03:00:42;5.97;;;0.98;;
13252;SDS011;6693;54.370;10.132;2023-03-12T03:01:46;5.28;;;0.73;;
13252;SDS011;6693;54.370;10.132;2023-03-12T03:02:46;6.28;;;0.80;;
13252;SDS011;6693;54.370;10.132;2023-03-12T03:03:50;5.40;;;0.60;;
13252;SDS011;6693;54.370;10.132;2023-03-12T03:04:51;6.13;;;0.70;;
13252;SDS011;6693;54.370;10.132;2023-03-12T03:05:54;4.72;;;0.73;;
13252;SDS011;6693;54.370;10.132;2023-03-12T03:06:54;4.85;;;0.60;;
13252;SDS011;6693;54.370;10.132;2023-03-12T03:07:58;6.65;;;0.73;;
13252;SDS011;6693;54.370;10.132;2023-03-12T03:08:59;6.45;;;0.93;;
13252;SDS011;6693;54.370;10.132;2023-03-12T03:10:03;5.50;;;0.80;;
13252;SDS011;6693;54.370;10.132;2023-03-12T03:11:05;3.72;;;0.52;;
13252;SDS011;6693;54.370;10.132;2023-03-12T03:12:08;4.85;;;0.68;;
13252;SDS011;6693;54.370;10.132;2023-03-12T03:13:12;4.88;;;0.80;;
13252;SDS011;6693;54.370;10.132;2023-03-12T03:14:15;3.70;;;0.80;;
13252;SDS011;6693;54.370;10.132;2023-03-12T03:15:15;4.95;;;0.80;;
13252;SDS011;6693;54.370;10.132;2023-03-12T03:16:19;5.90;;;0.90;;
13252;SDS011;6693;54.370;10.132;2023-03-12T03:17:19;3.53;;;0.60;;
13252;SDS011;6693;54.370;10.132;2023-03-12T03:18:24;5.15;;;0.60;;
13252;SDS011;6693;54.370;10.132;2023-03-12T03:19:24;5.03;;;1.02;;
13252;SDS011;6693;54.370;10.132;2023-03-12T03:20:28;4.75;;;0.70;;
13252;SDS011;6693;54.370;10.132;2023-03-12T03:21:29;5.63;;;1.25;;
13252;SDS011;6693;54.370;10.132;2023-03-12T03:22:32;4.90;;;0.70;;
13252;SDS011;6693;54.370;10.132;2023-03-12T03:23:33;5.35;;;0.63;;
13252;SDS011;6693;54.370;10.132;2023-03-12T03:24:37;4.47;;;0.77;;
13252;SDS011;6693;54.370;10.132;2023-03-12T03:25:37;7.32;;;0.88;;
13252;SDS011;6693;54.370;10.132;2023-03-12T03:26:41;6.22;;;0.52;;
13252;SDS011;6693;54.370;10.132;2023-03-12T03:27:41;3.78;;;0.77;;
13252;SDS011;6693;54.370;10.132;2023-03-12T03:28:47;8.50;;;0.73;;
13252;SDS011;6693;54.370;10.132;2023-03-12T03:29:48;4.18;;;0.75;;
13252;SDS011;6693;54.370;10.132;2023-03-12T03:30:51;7.63;;;0.70;;
13252;SDS011;6693;54.370;10.132;2023-03-12T03:31:52;3.00;;;0.65;;
13252;SDS011;6693;54.370;10.132;2023-03-12T03:32:55;6.78;;;1.55;;
13252;SDS011;6693;54.370;10.132;2023-03-12T03:33:56;7.55;;;1.67;;
13252;SDS011;6693;54.370;10.132;2023-03-12T03:34:59;5.40;;;1.50;;
13252;SDS011;6693;54.370;10.132;2023-03-12T03:36:00;5.10;;;1.52;;
13252;SDS011;6693;54.370;10.132;2023-03-12T03:37:03;5.60;;;1.08;;
13252;SDS011;6693;54.370;10.132;2023-03-12T03:38:04;3.92;;;0.95;;
13252;SDS011;6693;54.370;10.132;2023-03-12T03:39:08;5.78;;;0.93;;
13252;SDS011;6693;54.370;10.132;2023-03-12T03:40:09;4.30;;;0.60;;
13252;SDS011;6693;54.370;10.132;2023-03-12T03:41:13;4.60;;;0.73;;
13252;SDS011;6693;54.370;10.132;2023-03-12T03:42:14;6.53;;;0.85;;
13252;SDS011;6693;54.370;10.132;2023-03-12T03:43:17;5.25;;;1.00;;
13252;SDS011;6693;54.370;10.132;2023-03-12T03:44:20;4.63;;;0.50;;
13252;SDS011;6693;54.370;10.132;2023-03-12T03:45:24;6.35;;;0.93;;
13252;SDS011;6693;54.370;10.132;2023-03-12T03:46:25;5.88;;;0.60;;
13252;SDS011;6693;54.370;10.132;2023-03-12T03:47:28;6.40;;;0.73;;
13252;SDS011;6693;54.370;10.132;2023-03-12T03:48:29;4.93;;;0.60;;
13252;SDS011;6693;54.370;10.132;2023-03-12T03:49:32;4.85;;;0.90;;
13252;SDS011;6693;54.370;10.132;2023-03-12T03:50:32;5.25;;;0.60;;
13252;SDS011;6693;54.370;10.132;2023-03-12T03:51:36;5.65;;;0.55;;
13252;SDS011;6693;54.370;10.132;2023-03-12T03:52:36;4.53;;;0.85;;
13252;SDS011;6693;54.370;10.132;2023-03-12T03:53:39;6.38;;;0.75;;
13252;SDS011;6693;54.370;10.132;2023-03-12T03:54:40;7.22;;;0.80;;
13252;SDS011;6693;54.370;10.132;2023-03-12T03:55:43;5.40;;;0.80;;
13252;SDS011;6693;54.370;10.132;2023-03-12T03:56:44;4.18;;;0.63;;
13252;SDS011;6693;54.370;10.132;2023-03-12T03:57:47;6.80;;;1.00;;
13252;SDS011;6693;54.370;10.132;2023-03-12T03:58:48;6.22;;;0.60;;
13252;SDS011;6693;54.370;10.132;2023-03-12T03:59:54;5.60;;;0.80;;
13252;SDS011;6693;54.370;10.132;2023-03-12T04:00:55;4.75;;;0.95;;
13252;SDS011;6693;54.370;10.132;2023-03-12T04:01:58;4.10;;;0.60;;
13252;SDS011;6693;54.370;10.132;2023-03-12T04:03:01;6.53;;;0.75;;
13252;SDS011;6693;54.370;10.132;2023-03-12T04:04:04;4.75;;;0.70;;
13252;SDS011;6693;54.370;10.132;2023-03-12T04:05:05;8.45;;;0.82;;
13252;SDS011;6693;54.370;10.132;2023-03-12T04:06:09;3.40;;;0.50;;
13252;SDS011;6693;54.370;10.132;2023-03-12T04:07:09;4.55;;;0.47;;
13252;SDS011;6693;54.370;10.132;2023-03-12T04:08:13;6.25;;;0.73;;
13252;SDS011;6693;54.370;10.132;2023-03-12T04:09:13;4.75;;;0.73;;
13252;SDS011;6693;54.370;10.132;2023-03-12T04:10:17;5.07;;;0.50;;
13252;SDS011;6693;54.370;10.132;2023-03-12T04:11:19;3.47;;;0.70;;
13252;SDS011;6693;54.370;10.132;2023-03-12T04:12:23;5.05;;;0.73;;
13252;SDS011;6693;54.370;10.132;2023-03-12T04:13:25;5.55;;;0.60;;
13252;SDS011;6693;54.370;10.132;2023-03-12T04:14:28;6.00;;;0.95;;
13252;SDS011;6693;54.370;10.132;2023-03-12T04:15:32;6.55;;;0.70;;
13252;SDS011;6693;54.370;10.132;2023-03-12T04:16:35;5.50;;;1.50;;
13252;SDS011;6693;54.370;10.132;2023-03-12T04:17:36;7.63;;;3.03;;
13252;SDS011;6693;54.370;10.132;2023-03-12T04:18:39;8.32;;;2.40;;
13252;SDS011;6693;54.370;10.132;2023-03-12T04:19:40;8.80;;;0.90;;
13252;SDS011;6693;54.370;10.132;2023-03-12T04:20:43;5.78;;;0.75;;
13252;SDS011;6693;54.370;10.132;2023-03-12T04:21:44;4.65;;;0.60;;
13252;SDS011;6693;54.370;10.132;2023-03-12T04:22:47;4.93;;;0.85;;
13252;SDS011;6693;54.370;10.132;2023-03-12T04:23:48;4.15;;;0.80;;
13252;SDS011;6693;54.370;10.132;2023-03-12T04:24:51;7.35;;;0.82;;
13252;SDS011;6693;54.370;10.132;2023-03-12T04:25:51;6.20;;;1.38;;
13252;SDS011;6693;54.370;10.132;2023-03-12T04:26:55;7.40;;;0.70;;
13252;SDS011;6693;54.370;10.132;2023-03-12T04:27:56;4.32;;;0.70;;
13252;SDS011;6693;54.370;10.132;2023-03-12T04:29:00;4.35;;;1.20;;
13252;SDS011;6693;54.370;10.132;2023-03-12T04:30:01;5.22;;;0.93;;
13252;SDS011;6693;54.370;10.132;2023-03-12T04:31:07;6.30;;;0.90;;
13252;SDS011;6693;54.370;10.132;2023-03-12T04:32:07;7.07;;;1.10;;
13252;SDS011;6693;54.370;10.132;2023-03-12T04:33:11;5.22;;;0.93;;
13252;SDS011;6693;54.370;10.132;2023-03-12T04:34:11;6.57;;;0.98;;
13252;SDS011;6693;54.370;10.132;2023-03-12T04:35:14;4.75;;;1.33;;
13252;SDS011;6693;54.370;10.132;2023-03-12T04:36:15;6.32;;;1.45;;
13252;SDS011;6693;54.370;10.132;2023-03-12T04:37:18;5.38;;;1.25;;
13252;SDS011;6693;54.370;10.132;2023-03-12T04:38:23;7.00;;;0.90;;
13252;SDS011;6693;54.370;10.132;2023-03-12T04:39:24;8.57;;;0.98;;
13252;SDS011;6693;54.370;10.132;2023-03-12T04:40:27;6.10;;;0.95;;
13252;SDS011;6693;54.370;10.132;2023-03-12T04:41:28;7.05;;;0.90;;
13252;SDS011;6693;54.370;10.132;2023-03-12T04:42:31;5.70;;;0.65;;
13252;SDS011;6693;54.370;10.132;2023-03-12T04:43:33;4.53;;;0.63;;
13252;SDS011;6693;54.370;10.132;2023-03-12T04:44:37;5.80;;;0.63;;
13252;SDS011;6693;54.370;10.132;2023-03-12T04:45:40;9.68;;;1.17;;
13252;SDS011;6693;54.370;10.132;2023-03-12T04:46:44;5.22;;;0.60;;
13252;SDS011;6693;54.370;10.132;2023-03-12T04:47:47;3.63;;;0.82;;
13252;SDS011;6693;54.370;10.132;2023-03-12T04:48:48;4.70;;;0.52;;
13252;SDS011;6693;54.370;10.132;2023-03-12T04:49:51;4.40;;;0.82;;
13252;SDS011;6693;54.370;10.132;2023-03-12T04:50:52;5.00;;;0.63;;
13252;SDS011;6693;54.370;10.132;2023-03-12T04:51:55;4.78;;;0.63;;
13252;SDS011;6693;54.370;10.132;2023-03-12T04:52:56;3.95;;;0.40;;
13252;SDS011;6693;54.370;10.132;2023-03-12T04:53:59;7.50;;;1.02;;
13252;SDS011;6693;54.370;10.132;2023-03-12T04:54:59;6.10;;;0.60;;
13252;SDS011;6693;54.370;10.132;2023-03-12T04:56:03;4.93;;;0.50;;
13252;SDS011;6693;54.370;10.132;2023-03-12T04:57:04;7.85;;;1.23;;
13252;SDS011;6693;54.370;10.132;2023-03-12T04:58:08;5.68;;;0.98;;
13252;SDS011;6693;54.370;10.132;2023-03-12T04:59:08;4.75;;;0.73;;
13252;SDS011;6693;54.370;10.132;2023-03-12T05:00:12;6.80;;;0.77;;
13252;SDS011;6693;54.370;10.132;2023-03-12T05:01:18;4.65;;;0.85;;
13252;SDS011;6693;54.370;10.132;2023-03-12T05:02:28;6.50;;;0.88;;
13252;SDS011;6693;54.370;10.132;2023-03-12T05:03:30;4.43;;;1.10;;
13252;SDS011;6693;54.370;10.132;2023-03-12T05:04:34;7.40;;;0.73;;
13252;SDS011;6693;54.370;10.132;2023-03-12T05:05:34;5.05;;;0.95;;
13252;SDS011;6693;54.370;10.132;2023-03-12T05:06:37;6.10;;;1.05;;
13252;SDS011;6693;54.370;10.132;2023-03-12T05:07:38;5.88;;;0.90;;
13252;SDS011;6693;54.370;10.132;2023-03-12T05:08:41;5.75;;;1.23;;
13252;SDS011;6693;54.370;10.132;2023-03-12T05:09:42;3.08;;;0.60;;
13252;SDS011;6693;54.370;10.132;2023-03-12T05:10:46;5.35;;;0.85;;
13252;SDS011;6693;54.370;10.132;2023-03-12T05:11:46;6.57;;;1.00;;
13252;SDS011;6693;54.370;10.132;2023-03-12T05:12:49;4.55;;;0.85;;
13252;SDS011;6693;54.370;10.132;2023-03-12T05:13:50;4.35;;;0.82;;
13252;SDS011;6693;54.370;10.132;2023-03-12T05:14:53;6.03;;;1.00;;
13252;SDS011;6693;54.370;10.132;2023-03-12T05:15:54;5.82;;;0.77;;
13252;SDS011;6693;54.370;10.132;2023-03-12T05:16:57;7.32;;;1.13;;
13252;SDS011;6693;54.370;10.132;2023-03-12T05:18:00;3.33;;;0.65;;
13252;SDS011;6693;54.370;10.132;2023-03-12T05:19:04;6.47;;;1.15;;
13252;SDS011;6693;54.370;10.132;2023-03-12T05:20:05;6.57;;;1.02;;
13252;SDS011;6693;54.370;10.132;2023-03-12T05:21:10;5.55;;;0.93;;
13252;SDS011;6693;54.370;10.132;2023-03-12T05:22:12;5.38;;;1.13;;
13252;SDS011;6693;54.370;10.132;2023-03-12T05:23:15;5.78;;;0.85;;
13252;SDS011;6693;54.370;10.132;2023-03-12T05:24:16;6.80;;;1.48;;
13252;SDS011;6693;54.370;10.132;2023-03-12T05:25:21;4.65;;;1.40;;
13252;SDS011;6693;54.370;10.132;2023-03-12T05:26:22;5.78;;;1.42;;
13252;SDS011;6693;54.370;10.132;2023-03-12T05:27:27;7.28;;;1.75;;
13252;SDS011;6693;54.370;10.132;2023-03-12T05:28:27;6.20;;;1.48;;
13252;SDS011;6693;54.370;10.132;2023-03-12T05:29:31;3.85;;;1.02;;
13252;SDS011;6693;54.370;10.132;2023-03-12T05:30:34;7.47;;;1.48;;
13252;SDS011;6693;54.370;10.132;2023-03-12T05:31:37;7.35;;;1.25;;
13252;SDS011;6693;54.370;10.132;2023-03-12T05:32:38;5.38;;;0.93;;
13252;SDS011;6693;54.370;10.132;2023-03-12T05:33:44;7.75;;;1.42;;
13252;SDS011;6693;54.370;10.132;2023-03-12T05:34:44;6.60;;;0.90;;
13252;SDS011;6693;54.370;10.132;2023-03-12T05:35:48;5.70;;;1.15;;
13252;SDS011;6693;54.370;10.132;2023-03-12T05:36:49;7.70;;;1.23;;
13252;SDS011;6693;54.370;10.132;2023-03-12T05:37:52;5.07;;;0.93;;
13252;SDS011;6693;54.370;10.132;2023-03-12T05:38:52;6.47;;;0.80;;
13252;SDS011;6693;54.370;10.132;2023-03-12T05:39:56;5.70;;;1.27;;
13252;SDS011;6693;54.370;10.132;2023-03-12T05:40:57;6.60;;;0.95;;
13252;SDS011;6693;54.370;10.132;2023-03-12T05:42:00;8.07;;;1.17;;
13252;SDS011;6693;54.370;10.132;2023-03-12T05:43:01;6.72;;;0.88;;
13252;SDS011;6693;54.370;10.132;2023-03-12T05:44:04;4.57;;;1.08;;
13252;SDS011;6693;54.370;10.132;2023-03-12T05:45:05;4.72;;;1.17;;
13252;SDS011;6693;54.370;10.132;2023-03-12T05:46:10;5.10;;;1.05;;
13252;SDS011;6693;54.370;10.132;2023-03-12T05:47:10;8.55;;;1.95;;
13252;SDS011;6693;54.370;10.132;2023-03-12T05:48:13;5.20;;;1.08;;
13252;SDS011;6693;54.370;10.132;2023-03-12T05:49:17;6.20;;;1.08;;
13252;SDS011;6693;54.370;10.132;2023-03-12T05:50:20;5.35;;;1.00;;
13252;SDS011;6693;54.370;10.132;2023-03-12T05:51:21;6.05;;;1.73;;
13252;SDS011;6693;54.370;10.132;2023-03-12T05:52:24;6.45;;;1.40;;
13252;SDS011;6693;54.370;10.132;2023-03-12T05:53:25;5.97;;;1.00;;
13252;SDS011;6693;54.370;10.132;2023-03-12T05:54:28;7.28;;;1.20;;
13252;SDS011;6693;54.370;10.132;2023-03-12T05:55:29;7.03;;;1.20;;
13252;SDS011;6693;54.370;10.132;2023-03-12T05:56:32;6.30;;;1.00;;
13252;SDS011;6693;54.370;10.132;2023-03-12T05:57:35;6.32;;;1.30;;
13252;SDS011;6693;54.370;10.132;2023-03-12T05:58:38;6.57;;;1.50;;
13252;SDS011;6693;54.370;10.132;2023-03-12T05:59:39;7.15;;;1.50;;
13252;SDS011;6693;54.370;10.132;2023-03-12T06:00:42;6.63;;;1.05;;
13252;SDS011;6693;54.370;10.132;2023-03-12T06:01:44;5.47;;;1.30;;
13252;SDS011;6693;54.370;10.132;2023-03-12T06:02:47;6.32;;;1.35;;
13252;SDS011;6693;54.370;10.132;2023-03-12T06:03:48;5.10;;;1.15;;
13252;SDS011;6693;54.370;10.132;2023-03-12T06:04:54;8.40;;;1.65;;
13252;SDS011;6693;54.370;10.132;2023-03-12T06:05:57;7.63;;;3.00;;
13252;SDS011;6693;54.370;10.132;2023-03-12T06:07:00;8.15;;;2.65;;
13252;SDS011;6693;54.370;10.132;2023-03-12T06:08:01;14.80;;;3.75;;
13252;SDS011;6693;54.370;10.132;2023-03-12T06:09:04;7.00;;;1.70;;
13252;SDS011;6693;54.370;10.132;2023-03-12T06:10:06;7.68;;;1.40;;
13252;SDS011;6693;54.370;10.132;2023-03-12T06:11:10;9.27;;;2.20;;
13252;SDS011;6693;54.370;10.132;2023-03-12T06:12:10;9.50;;;2.55;;
13252;SDS011;6693;54.370;10.132;2023-03-12T06:13:13;8.98;;;2.13;;
13252;SDS011;6693;54.370;10.132;2023-03-12T06:14:14;9.13;;;1.92;;
13252;SDS011;6693;54.370;10.132;2023-03-12T06:15:17;7.18;;;1.42;;
13252;SDS011;6693;54.370;10.132;2023-03-12T06:16:19;5.55;;;1.98;;
13252;SDS011;6693;54.370;10.132;2023-03-12T06:17:23;6.75;;;1.83;;
13252;SDS011;6693;54.370;10.132;2023-03-12T06:18:24;5.60;;;1.88;;
13252;SDS011;6693;54.370;10.132;2023-03-12T06:19:27;6.25;;;2.33;;
13252;SDS011;6693;54.370;10.132;2023-03-12T06:20:30;8.80;;;1.88;;
13252;SDS011;6693;54.370;10.132;2023-03-12T06:21:34;8.70;;;2.15;;